Time;durP1;ratioP1;P1;durP2;ratioP2;P2;SDS_P1;SDS_P2;PMS_P1;PMS_P2;Temp;Humidity;BMP_temperature;BMP_pressure;BME280_temperature;BME280_humidity;BME280_pressure;Samples;Min_cycle;Max_cycle;Signal;HPM_P1;HPM_P2
2021/04/25 13:50:06;;;;;;;10.37;5.63;;;;;;;;;;5168194;27;20514;-81
2021/04/25 13:52:34;;;;;;;10.67;7.33;;;;;;;;;;5155704;27;20776;-80
2021/04/25 13:55:02;;;;;;;9.97;5.80;;;;;;;;;;5154728;27;20467;-79
2021/04/25 13:57:29;;;;;;;9.80;5.30;;;;;;;;;;5144432;27;20439;-81
2021/04/25 13:59:55;;;;;;;8.53;6.07;;;;;;;;;;5146231;27;20535;-79
2021/04/25 14:02:22;;;;;;;7.50;6.67;;;;;;;;;;5145053;27;20504;-79
2021/04/25 14:04:52;;;;;;;8.10;5.60;;;;;;;;;;5111408;28;20474;-81
2021/04/25 14:07:22;;;;;;;6.13;5.53;;;;;;;;;;5129870;27;20486;-80
2021/04/25 14:09:49;;;;;;;7.53;5.17;;;;;;;;;;5126022;28;20574;-82
2021/04/25 14:12:16;;;;;;;7.77;5.87;;;;;;;;;;5125852;28;20799;-78
2021/04/25 14:14:43;;;;;;;5.93;4.70;;;;;;;;;;5126207;28;20465;-79
2021/04/25 14:17:12;;;;;;;6.37;5.73;;;;;;;;;;5144750;27;20461;-83
2021/04/25 14:19:38;;;;;;;10.80;6.10;;;;;;;;;;5148299;27;20509;-79
2021/04/25 14:22:06;;;;;;;5.87;5.37;;;;;;;;;;5148149;27;20441;-79
2021/04/25 14:24:33;;;;;;;7.23;5.37;;;;;;;;;;5367132;22;20497;-82
2021/04/25 14:27:01;;;;;;;8.70;6.30;;;;;;;;;;5070032;28;20779;-79
2021/04/25 14:29:28;;;;;;;6.43;5.57;;;;;;;;;;5065089;28;20447;-78
2021/04/25 14:31:54;;;;;;;6.90;5.90;;;;;;;;;;5064534;28;20441;-80
2021/04/25 14:34:21;;;;;;;6.23;5.60;;;;;;;;;;5064496;28;20465;-82
2021/04/25 14:36:52;;;;;;;7.73;5.73;;;;;;;;;;5064443;28;20447;-84
2021/04/25 14:39:19;;;;;;;8.30;5.33;;;;;;;;;;5069632;28;20995;-82
2021/04/25 14:41:47;;;;;;;9.43;5.13;;;;;;;;;;5070238;28;20440;-81
2021/04/25 14:44:15;;;;;;;6.17;4.90;;;;;;;;;;5089544;28;20463;-81
2021/04/25 14:46:42;;;;;;;7.87;5.60;;;;;;;;;;5070471;28;20435;-80
2021/04/25 14:49:08;;;;;;;6.87;5.77;;;;;;;;;;5073521;28;20425;-83
2021/04/25 14:51:36;;;;;;;5.90;5.30;;;;;;;;;;5078766;28;20432;-81
2021/04/25 14:54:08;;;;;;;5.70;5.00;;;;;;;;;;5087688;28;20562;-82
2021/04/25 14:56:34;;;;;;;6.30;4.53;;;;;;;;;;5070095;28;20450;-83
2021/04/25 14:59:02;;;;;;;5.63;5.10;;;;;;;;;;5088116;28;20483;-82
2021/04/25 15:01:29;;;;;;;7.50;5.90;;;;;;;;;;5074942;28;20464;-80
2021/04/25 15:03:56;;;;;;;6.30;5.23;;;;;;;;;;5071221;28;20456;-79
2021/04/25 15:06:24;;;;;;;6.10;5.00;;;;;;;;;;5076076;28;20445;-78
2021/04/25 15:08:52;;;;;;;7.43;5.47;;;;;;;;;;5076413;28;20477;-82
2021/04/25 15:11:19;;;;;;;12.13;5.13;;;;;;;;;;5063358;28;20432;-79
2021/04/25 15:13:46;;;;;;;6.83;5.13;;;;;;;;;;5044673;28;20900;-79
2021/04/25 15:16:14;;;;;;;8.17;5.37;;;;;;;;;;5072997;28;20436;-78
2021/04/25 15:18:42;;;;;;;6.73;5.47;;;;;;;;;;5055129;28;20469;-79
2021/04/25 15:21:09;;;;;;;8.90;5.87;;;;;;;;;;5054037;28;20926;-78
2021/04/25 15:23:37;;;;;;;7.87;5.43;;;;;;;;;;5059751;28;20445;-78
2021/04/25 15:26:05;;;;;;;8.77;5.53;;;;;;;;;;5044388;28;21023;-79
2021/04/25 15:28:32;;;;;;;6.37;4.77;;;;;;;;;;5055687;28;20453;-78
2021/04/25 15:30:59;;;;;;;8.20;4.83;;;;;;;;;;5063029;28;20959;-78
2021/04/25 15:33:27;;;;;;;6.83;4.47;;;;;;;;;;5066344;28;20463;-78
2021/04/25 15:35:55;;;;;;;10.03;5.97;;;;;;;;;;5059314;28;20440;-79
2021/04/25 15:38:22;;;;;;;8.53;5.77;;;;;;;;;;5052087;28;20477;-79
2021/04/25 15:40:49;;;;;;;7.33;5.90;;;;;;;;;;5054010;28;20437;-79
2021/04/25 15:43:16;;;;;;;10.07;5.90;;;;;;;;;;5053291;28;20445;-79
2021/04/25 15:45:45;;;;;;;5.10;4.60;;;;;;;;;;5060007;28;20570;-78
2021/04/25 15:48:12;;;;;;;11.53;5.67;;;;;;;;;;5058039;28;20440;-79
2021/04/25 15:50:39;;;;;;;9.53;5.40;;;;;;;;;;5075369;28;20929;-79
2021/04/25 15:53:07;;;;;;;6.10;5.20;;;;;;;;;;5075417;28;20467;-79
2021/04/25 15:55:35;;;;;;;9.00;5.80;;;;;;;;;;5052112;28;20925;-78
2021/04/25 15:58:02;;;;;;;12.20;5.50;;;;;;;;;;5058920;28;20514;-79
2021/04/25 16:00:29;;;;;;;6.43;4.93;;;12.20;1.00;;;;;;5062226;28;20437;-78
2021/04/25 16:02:56;;;;;;;5.23;4.83;;;12.20;1.00;;;;;;5040137;28;20474;-79
2021/04/25 16:05:23;;;;;;;9.83;5.60;;;12.20;1.00;;;;;;5060105;28;20456;-84
2021/04/25 16:07:51;;;;;;;5.77;5.17;;;12.10;1.00;;;;;;5054300;28;20445;-86
2021/04/25 16:10:20;;;;;;;4.57;3.87;;;12.10;1.00;;;;;;5052664;28;20437;-81
2021/04/25 16:12:48;;;;;;;8.13;4.33;;;12.10;1.00;;;;;;5066224;28;20437;-85
2021/04/25 16:15:16;;;;;;;7.13;4.47;;;12.10;1.00;;;;;;5067422;28;20538;-89
2021/04/25 16:17:43;;;;;;;6.83;4.80;;;12.10;1.00;;;;;;5062390;28;20953;-86
2021/04/25 16:20:12;;;;;;;8.70;4.47;;;12.10;1.00;;;;;;5059932;28;20432;-90
2021/04/25 16:22:39;;;;;;;8.00;4.33;;;12.10;1.00;;;;;;5036812;28;20519;-89
2021/04/25 16:25:09;;;;;;;9.10;5.10;;;12.10;1.00;;;;;;5052652;28;20990;-87
2021/04/25 16:27:35;;;;;;;9.13;5.23;;;12.10;1.00;;;;;;5034967;28;20445;-88
2021/04/25 16:30:03;;;;;;;8.20;5.47;;;12.10;1.00;;;;;;5052875;28;20440;-84
2021/04/25 16:32:29;;;;;;;7.97;4.70;;;12.10;1.00;;;;;;5071732;28;20549;-82
2021/04/25 16:34:56;;;;;;;9.50;4.23;;;12.10;1.00;;;;;;5056335;28;20456;-81
2021/04/25 16:37:23;;;;;;;6.83;4.40;;;12.10;1.00;;;;;;5074427;28;20452;-80
2021/04/25 16:39:50;;;;;;;7.93;4.47;;;12.10;1.00;;;;;;5074035;28;20488;-80
2021/04/25 16:42:18;;;;;;;8.17;5.33;;;12.00;1.00;;;;;;5058042;28;20479;-80
2021/04/25 16:44:45;;;;;;;11.87;5.40;;;12.00;1.00;;;;;;5053987;28;20544;-81
2021/04/25 16:47:11;;;;;;;8.47;4.90;;;12.00;1.00;;;;;;5052048;28;20969;-80
2021/04/25 16:49:38;;;;;;;7.00;5.67;;;12.00;1.00;;;;;;5052127;28;20447;-80
2021/04/25 16:52:05;;;;;;;10.13;5.77;;;12.00;1.00;;;;;;5034347;28;20447;-80
2021/04/25 16:54:33;;;;;;;6.00;4.77;;;12.00;1.00;;;;;;5050666;28;20468;-81
2021/04/25 16:57:00;;;;;;;7.47;5.03;;;11.90;1.00;;;;;;5056711;28;20444;-80
2021/04/25 16:59:28;;;;;;;6.83;5.07;;;11.90;1.00;;;;;;5056524;28;20480;-80
2021/04/25 17:01:54;;;;;;;5.93;4.80;;;11.90;1.00;;;;;;5074126;28;20539;-80
2021/04/25 17:04:22;;;;;;;6.43;5.13;;;11.90;1.00;;;;;;5058156;28;20461;-81
2021/04/25 17:06:49;;;;;;;10.07;5.10;;;11.90;1.00;;;;;;5052494;28;20536;-82
2021/04/25 17:09:15;;;;;;;13.17;5.40;;;11.80;1.00;;;;;;5033836;28;20457;-82
2021/04/25 17:11:42;;;;;;;6.10;5.50;;;11.80;1.00;;;;;;5051506;28;20445;-82
2021/04/25 17:14:09;;;;;;;8.30;5.47;;;11.80;1.00;;;;;;5051103;28;20449;-83
2021/04/25 17:16:40;;;;;;;7.17;5.37;;;11.80;1.00;;;;;;5061402;28;20535;-84
2021/04/25 17:19:08;;;;;;;8.03;6.50;;;11.80;1.00;;;;;;5039438;28;20525;-83
2021/04/25 17:21:35;;;;;;;6.47;5.63;;;11.80;1.00;;;;;;5067225;28;20853;-82
2021/04/25 17:24:02;;;;;;;7.70;5.63;;;11.70;1.00;;;;;;5071107;28;20460;-82
2021/04/25 17:26:29;;;;;;;9.53;5.33;;;11.70;1.00;;;;;;5071828;28;20466;-80
2021/04/25 17:28:55;;;;;;;8.90;5.53;;;11.70;1.00;;;;;;5071542;28;20790;-83
2021/04/25 17:31:22;;;;;;;7.87;5.03;;;11.70;1.00;;;;;;5073864;28;20456;-82
2021/04/25 17:33:50;;;;;;;11.87;5.40;;;11.60;1.00;;;;;;5039501;28;20456;-84
2021/04/25 17:36:18;;;;;;;7.43;5.13;;;11.60;1.00;;;;;;5055758;28;20438;-84
2021/04/25 17:38:44;;;;;;;10.40;5.20;;;11.60;1.00;;;;;;5019585;28;20481;-86
2021/04/25 17:41:11;;;;;;;8.90;5.07;;;11.60;1.00;;;;;;5057346;28;20428;-83
2021/04/25 17:43:38;;;;;;;6.30;4.60;;;11.60;1.00;;;;;;5063068;28;21244;-83
2021/04/25 17:46:05;;;;;;;8.70;4.50;;;11.50;1.00;;;;;;5071410;28;20451;-85
2021/04/25 17:48:32;;;;;;;23.73;5.70;;;11.50;1.00;;;;;;5071249;28;20487;-84
2021/04/25 17:51:00;;;;;;;11.60;4.63;;;11.40;1.00;;;;;;5070593;28;20918;-84
2021/04/25 17:53:28;;;;;;;6.50;4.23;;;11.30;1.00;;;;;;5072788;28;20440;-82
2021/04/25 17:55:55;;;;;;;5.63;4.03;;;11.30;1.00;;;;;;5057349;28;20930;-84
2021/04/25 17:58:21;;;;;;;6.13;4.17;;;11.30;1.00;;;;;;5053395;28;20491;-84
2021/04/25 18:00:48;;;;;;;9.10;4.30;;;11.30;1.00;;;;;;5053399;28;20790;-85
2021/04/25 18:03:15;;;;;;;5.07;4.00;;;11.20;1.00;;;;;;5038321;28;20430;-85
2021/04/25 18:05:41;;;;;;;11.97;4.40;;;11.20;1.00;;;;;;5054181;28;20801;-80
2021/04/25 18:08:10;;;;;;;6.97;4.37;;;11.20;1.00;;;;;;5051111;28;20480;-80
2021/04/25 18:10:37;;;;;;;5.73;3.60;;;11.10;1.00;;;;;;5051084;28;20527;-86
2021/04/25 18:13:05;;;;;;;9.60;4.83;;;11.10;1.00;;;;;;5051275;28;20476;-84
2021/04/25 18:15:32;;;;;;;8.23;4.00;;;11.10;1.00;;;;;;5062234;28;20534;-82
2021/04/25 18:18:00;;;;;;;7.70;4.00;;;11.00;1.00;;;;;;5073081;28;20440;-80
2021/04/25 18:20:28;;;;;;;3.93;3.10;;;11.00;1.00;;;;;;5055419;28;20433;-81
2021/04/25 18:22:55;;;;;;;6.37;3.40;;;10.90;1.00;;;;;;5034053;28;20440;-83
2021/04/25 18:25:22;;;;;;;5.30;3.93;;;10.90;1.00;;;;;;5051604;28;20617;-82
2021/04/25 18:27:52;;;;;;;9.17;4.20;;;10.80;1.00;;;;;;5047091;28;20445;-86
2021/04/25 18:30:21;;;;;;;6.93;3.60;;;10.80;1.00;;;;;;5047969;28;20536;-84
2021/04/25 18:32:48;;;;;;;4.40;3.23;;;10.70;1.00;;;;;;5030355;28;20429;-84
2021/04/25 18:35:19;;;;;;;6.43;3.67;;;10.70;1.00;;;;;;5041740;28;20464;-84
2021/04/25 18:37:47;;;;;;;4.13;3.20;;;10.60;1.00;;;;;;5073520;28;20542;-87
2021/04/25 18:40:19;;;;;;;7.10;3.43;;;10.60;1.00;;;;;;5046722;28;20572;-83
2021/04/25 18:42:47;;;;;;;8.10;5.43;;;10.60;1.00;;;;;;5035996;28;20480;-83
2021/04/25 18:45:16;;;;;;;8.80;4.90;;;10.50;1.00;;;;;;5055012;28;20471;-85
2021/04/25 18:47:43;;;;;;;24.17;12.30;;;10.50;1.00;;;;;;5059076;28;20440;-85
2021/04/25 18:50:12;;;;;;;15.97;8.63;;;10.40;1.00;;;;;;5053317;28;20444;-84
2021/04/25 18:52:39;;;;;;;10.40;7.50;;;10.40;1.00;;;;;;5071511;28;20448;-84
2021/04/25 18:55:09;;;;;;;19.30;9.60;;;10.30;1.00;;;;;;5053824;28;20500;-86
2021/04/25 18:57:37;;;;;;;13.93;9.30;;;10.30;1.00;;;;;;5053155;28;20513;-84
2021/04/25 19:00:08;;;;;;;11.50;5.13;;;10.20;1.00;;;;;;5072692;28;20491;-80
2021/04/25 19:02:34;;;;;;;8.43;5.60;;;10.20;1.00;;;;;;5058455;28;20448;-82
2021/04/25 19:05:01;;;;;;;13.03;6.47;;;10.10;1.00;;;;;;5055395;28;20530;-83
2021/04/25 19:07:29;;;;;;;7.00;4.60;;;10.10;1.00;;;;;;5064442;28;20971;-85
2021/04/25 19:09:56;;;;;;;10.40;4.77;;;10.00;1.00;;;;;;5070137;28;20444;-82
2021/04/25 19:12:22;;;;;;;7.13;5.07;;;10.00;1.00;;;;;;5070469;28;20448;-80
2021/04/25 19:14:49;;;;;;;6.10;4.30;;;10.00;1.00;;;;;;5070841;28;20468;-81
2021/04/25 19:17:18;;;;;;;7.90;4.40;;;;;;;;;;5034488;28;20445;-82
2021/04/25 19:19:45;;;;;;;14.77;9.40;;;;;;;;;;5034563;28;20503;-81
2021/04/25 19:22:13;;;;;;;11.37;4.10;;;;;;;;;;5053353;28;20476;-80
2021/04/25 19:24:40;;;;;;;26.67;14.97;;;;;;;;;;5053112;28;20797;-82
2021/04/25 19:27:07;;;;;;;10.70;6.20;;;;;;;;;;5055990;28;20556;-80
2021/04/25 19:29:34;;;;;;;13.10;6.97;;;;;;;;;;5064348;28;20812;-83
2021/04/25 19:32:01;;;;;;;12.57;6.20;;;;;;;;;;5070626;28;20445;-85
2021/04/25 19:34:29;;;;;;;16.53;9.10;;;;;;;;;;5069998;28;20464;-83
2021/04/25 19:36:55;;;;;;;10.83;5.50;;;;;;;;;;5070502;28;21032;-84
2021/04/25 19:39:22;;;;;;;19.83;8.77;;;;;;;;;;5071042;28;20832;-82
2021/04/25 19:41:50;;;;;;;13.73;6.80;;;;;;;;;;5072053;28;20797;-81
2021/04/25 19:44:17;;;;;;;5.20;4.67;;;;;;;;;;5071925;28;20817;-84
2021/04/25 19:46:44;;;;;;;12.10;5.80;;;;;;;;;;5052050;28;20456;-81
2021/04/25 19:49:11;;;;;;;8.43;5.10;;;;;;;;;;5057372;28;20436;-78
2021/04/25 19:51:39;;;;;;;6.30;4.73;;;;;;;;;;5056610;28;20447;-83
2021/04/25 19:54:06;;;;;;;7.80;4.63;;;;;;;;;;5051481;28;20518;-85
2021/04/25 19:56:33;;;;;;;7.20;4.70;;;;;;;;;;5052466;28;20433;-84
2021/04/25 19:59:00;;;;;;;11.00;4.70;;;;;;;;;;5053885;28;20480;-84
2021/04/25 20:01:27;;;;;;;9.10;4.07;;;;;;;;;;5071015;28;20550;-85
2021/04/25 20:03:54;;;;;;;9.77;5.47;;;;;;;;;;5058712;28;20457;-83
2021/04/25 20:06:21;;;;;;;6.03;4.70;;;;;;;;;;5065843;28;20428;-84
2021/04/25 20:08:49;;;;;;;7.10;4.43;;;;;;;;;;5055010;28;20448;-83
2021/04/25 20:11:16;;;;;;;6.00;4.17;;;;;;;;;;5062338;28;20464;-83
2021/04/25 20:13:43;;;;;;;8.50;4.60;;;;;;;;;;5052859;28;20449;-86
2021/04/25 20:16:09;;;;;;;6.73;4.23;;;;;;;;;;5071418;28;20521;-85
2021/04/25 20:18:37;;;;;;;7.17;4.67;;;;;;;;;;5074710;28;20502;-82
2021/04/25 20:21:05;;;;;;;7.10;4.37;;;;;;;;;;5074742;28;20569;-81
2021/04/25 20:23:32;;;;;;;7.20;4.20;;;;;;;;;;5068303;28;20824;-88
2021/04/25 20:26:01;;;;;;;6.27;4.90;;;;;;;;;;5057727;28;20973;-85
2021/04/25 20:28:28;;;;;;;4.70;3.93;;;;;;;;;;5060436;28;20440;-83
2021/04/25 20:30:57;;;;;;;8.60;3.40;;;;;;;;;;5060907;28;20954;-85
2021/04/25 20:33:25;;;;;;;7.93;4.63;;;;;;;;;;5052827;28;20805;-88
2021/04/25 20:35:52;;;;;;;7.40;4.80;;;;;;;;;;5052901;28;20448;-87
2021/04/25 20:38:19;;;;;;;7.63;4.97;;;;;;;;;;5066109;28;20455;-86
2021/04/25 20:40:47;;;;;;;6.60;4.30;;;;;;;;;;5074666;28;20435;-85
2021/04/25 20:43:15;;;;;;;6.60;4.70;;;;;;;;;;5074707;28;20497;-83
2021/04/25 20:45:42;;;;;;;7.10;4.10;;;;;;;;;;5056688;28;20470;-84
2021/04/25 20:48:10;;;;;;;6.13;4.10;;;;;;;;;;5042941;28;20444;-86
2021/04/25 20:50:38;;;;;;;7.77;4.00;;;;;;;;;;5055004;28;20436;-85
2021/04/25 20:53:05;;;;;;;6.50;4.20;;;;;;;;;;5052095;28;20447;-85
2021/04/25 20:55:32;;;;;;;9.33;4.77;;;;;;;;;;5034099;28;20457;-85
2021/04/25 20:57:59;;;;;;;5.63;4.33;;;;;;;;;;5033946;28;20445;-87
2021/04/25 21:00:29;;;;;;;6.80;3.60;;;;;;;;;;5063799;28;20491;-87
2021/04/25 21:02:56;;;;;;;9.20;4.30;;;;;;;;;;5074128;28;20444;-89
2021/04/25 21:05:23;;;;;;;10.63;7.10;;;;;;;;;;5074072;28;20508;-91
2021/04/25 21:07:51;;;;;;;9.73;6.40;;;;;;;;;;5074050;28;20531;-86
2021/04/25 21:10:19;;;;;;;9.13;6.43;;;;;;;;;;5042814;28;20443;-85
2021/04/25 21:12:47;;;;;;;9.70;6.10;;;;;;;;;;5054535;28;20436;-85
2021/04/25 21:15:14;;;;;;;9.63;4.83;;;;;;;;;;5051400;28;20471;-84
2021/04/25 21:17:42;;;;;;;9.00;5.70;;;;;;;;;;5051688;28;20448;-88
2021/04/25 21:20:11;;;;;;;8.87;5.67;;;;;;;;;;5033928;28;21037;-87
2021/04/25 21:22:37;;;;;;;7.20;4.30;;;;;;;;;;5063893;28;21028;-86
2021/04/25 21:25:06;;;;;;;5.50;4.67;;;;;;;;;;5073861;28;20474;-90
2021/04/25 21:27:32;;;;;;;4.20;3.73;;;;;;;;;;5056023;28;20447;-84
2021/04/25 21:29:59;;;;;;;8.13;3.93;;;;;;;;;;5074035;28;20962;-85
2021/04/25 21:32:26;;;;;;;6.10;4.10;;;;;;;;;;5060169;28;20505;-89
2021/04/25 21:34:54;;;;;;;7.40;3.60;;;;;;;;;;5059872;28;20451;-85
2021/04/25 21:37:21;;;;;;;7.63;4.40;;;;;;;;;;5071375;28;20551;-85
2021/04/25 21:39:48;;;;;;;10.40;4.50;;;;;;;;;;5071115;28;20540;-85
2021/04/25 21:42:15;;;;;;;6.43;4.33;;;;;;;;;;5071329;28;20833;-86
2021/04/25 21:44:41;;;;;;;11.03;3.80;;;;;;;;;;5072596;28;20870;-87
2021/04/25 21:47:08;;;;;;;5.93;3.80;;;;;;;;;;5073835;28;20958;-85
2021/04/25 21:49:35;;;;;;;8.00;5.13;;;;;;;;;;5073866;28;20443;-88
2021/04/25 21:52:03;;;;;;;8.47;3.97;;;;;;;;;;5073538;28;20448;-88
2021/04/25 21:54:29;;;;;;;7.83;4.00;;;;;;;;;;5054128;28;20456;-87
2021/04/25 21:56:56;;;;;;;5.77;4.03;;;;;;;;;;5056853;28;20438;-88
2021/04/25 21:59:23;;;;;;;4.53;3.50;;;8.50;50.00;;;;;;5070923;28;20486;-87
2021/04/25 22:01:50;;;;;;;6.50;2.93;;;8.60;99.90;;;;;;5071028;28;20492;-89
2021/04/25 22:04:18;;;;;;;11.43;4.63;;;;;;;;;;5071670;28;20472;-86
2021/04/25 22:06:45;;;;;;;8.20;4.27;;;;;;;;;;5072004;28;20550;-87
2021/04/25 22:09:13;;;;;;;9.75;5.15;;;;;;;;;;5073091;28;20443;-87
2021/04/25 22:11:42;;;;;;;12.30;4.77;;;;;;;;;;5077728;28;20196;-85
2021/04/25 22:14:08;;;;;;;7.63;4.20;;;8.00;1.00;;;;;;5077145;28;20466;-87
2021/04/25 22:16:35;;;;;;;5.73;3.70;;;8.10;1.00;;;;;;5064676;28;20946;-87
2021/04/25 22:19:02;;;;;;;7.00;4.15;;;;;;;;;;5063830;28;20480;-85
2021/04/25 22:21:29;;;;;;;11.77;4.00;;;7.90;1.00;;;;;;5074860;28;20200;-89
2021/04/25 22:23:55;;;;;;;6.77;3.80;;;8.00;1.00;;;;;;5074754;28;20462;-87
2021/04/25 22:26:25;;;;;;;7.00;4.00;;;7.90;1.00;;;;;;5074732;28;20465;-83
2021/04/25 22:28:51;;;;;;;8.85;4.40;;;7.80;1.00;;;;;;5075758;28;20452;-84
2021/04/25 22:31:18;;;;;;;10.00;5.05;;;7.90;1.00;;;;;;5077122;28;20547;-84
2021/04/25 22:33:44;;;;;;;8.97;3.93;;;7.80;1.00;;;;;;5076713;28;20233;-85
2021/04/25 22:36:11;;;;;;;4.73;4.17;;;7.60;1.00;;;;;;5076671;28;20952;-85
2021/04/25 22:38:38;;;;;;;8.23;4.33;;;7.70;1.00;;;;;;5065551;28;20492;-84
2021/04/25 22:41:04;;;;;;;7.03;4.47;;;;;;;;;;5062852;28;20427;-83
2021/04/25 22:43:32;;;;;;;6.57;4.97;;;;;;;;;;5073440;28;20544;-86
2021/04/25 22:45:59;;;;;;;8.15;4.60;;;;;;;;;;5074216;28;20209;-85
2021/04/25 22:48:26;;;;;;;9.20;4.67;;;;;;;;;;5074562;28;20197;-85
2021/04/25 22:50:53;;;;;;;8.80;3.78;;;;;;;;;;5074838;28;20955;-87
2021/04/25 22:53:20;;;;;;;7.25;4.20;;;;;;;;;;5076706;28;20283;-84
2021/04/25 22:55:47;;;;;;;7.82;4.20;;;;;;;;;;5076497;28;20224;-82
2021/04/25 22:58:13;;;;;;;7.78;3.55;;;;;;;;;;5076588;28;20249;-83
2021/04/25 23:00:44;;;;;;;5.35;3.45;;;;;;;;;;5065501;28;20212;-82
2021/04/25 23:03:13;;;;;;;6.85;3.60;;;;;;;;;;5062069;28;20230;-85
2021/04/25 23:05:40;;;;;;;6.15;4.30;;;7.80;99.90;;;;;;5073135;28;20209;-85
2021/04/25 23:08:08;;;;;;;7.43;4.05;;;;;;;;;;5074063;28;20192;-85
2021/04/25 23:10:34;;;;;;;7.25;4.00;;;7.70;99.90;;;;;;5056810;28;20554;-85
2021/04/25 23:13:03;;;;;;;4.80;3.25;;;7.40;99.90;;;;;;5074679;28;20202;-84
2021/04/25 23:15:32;;;;;;;10.07;4.25;;;;;;;;;;5076283;28;20220;-80
2021/04/25 23:18:02;;;;;;;7.50;3.83;;;;;;;;;;5076121;28;20200;-85
2021/04/25 23:20:31;;;;;;;10.75;4.28;;;;;;;;;;5076025;28;20223;-85
2021/04/25 23:23:02;;;;;;;10.13;4.30;;;;;;;;;;5047629;28;20823;-86
2021/04/25 23:25:29;;;;;;;10.93;4.30;;;;;;;;;;5044495;28;20639;-84
2021/04/25 23:27:57;;;;;;;7.35;4.35;;;;;;;;;;5072722;28;20219;-84
2021/04/25 23:30:24;;;;;;;10.85;4.60;;;;;;;;;;5073374;28;20216;-81
2021/04/25 23:32:51;;;;;;;11.73;4.88;;;;;;;;;;5073652;28;20417;-82
2021/04/25 23:35:19;;;;;;;9.07;4.47;;;;;;;;;;5074311;28;20224;-86
2021/04/25 23:37:46;;;;;;;8.25;4.93;;;;;;;;;;5076120;28;20199;-83
2021/04/25 23:40:14;;;;;;;6.15;4.18;;;;;;;;;;5058096;28;20701;-85
2021/04/25 23:42:41;;;;;;;14.73;5.07;;;;;;;;;;5075646;28;20198;-83
2021/04/25 23:45:09;;;;;;;6.60;4.32;;;;;;;;;;5064390;28;20256;-82
2021/04/25 23:47:36;;;;;;;12.18;4.60;;;7.20;99.90;;;;;;5058900;28;20187;-83
2021/04/25 23:50:03;;;;;;;10.80;4.20;;;;;;;;;;5052193;28;20229;-80
2021/04/25 23:52:33;;;;;;;7.60;4.28;;;;;;;;;;5053096;28;20349;-87
2021/04/25 23:55:00;;;;;;;11.50;4.38;;;;;;;;;;5053343;28;20218;-83
2021/04/25 23:57:28;;;;;;;5.78;3.70;;;;;;;;;;5061923;28;20192;-87
2021/04/25 23:59:57;;;;;;;11.90;5.82;;;;;;;;;;5075178;28;20235;-86
